sensor_id;sensor_type;location;lat;lon;timestamp;temperature;humidity
19365;DHT22;9818;48.382;10.850;2022-11-15T00:01:09;5.20;99.90
19365;DHT22;9818;48.382;10.850;2022-11-15T00:03:41;5.20;99.90
19365;DHT22;9818;48.382;10.850;2022-11-15T00:06:11;5.20;99.90
19365;DHT22;9818;48.382;10.850;2022-11-15T00:08:42;5.20;99.90
19365;DHT22;9818;48.382;10.850;2022-11-15T00:11:11;5.20;99.90
19365;DHT22;9818;48.382;10.850;2022-11-15T00:13:42;5.70;99.90
19365;DHT22;9818;48.382;10.850;2022-11-15T00:16:11;5.20;99.90
19365;DHT22;9818;48.382;10.850;2022-11-15T00:18:42;5.20;99.90
19365;DHT22;9818;48.382;10.850;2022-11-15T00:21:13;5.20;99.90
19365;DHT22;9818;48.382;10.850;2022-11-15T00:23:46;5.20;99.90
19365;DHT22;9818;48.382;10.850;2022-11-15T00:26:14;5.10;99.90
19365;DHT22;9818;48.382;10.850;2022-11-15T00:28:43;5.10;99.90
19365;DHT22;9818;48.382;10.850;2022-11-15T00:31:14;5.10;99.90
19365;DHT22;9818;48.382;10.850;2022-11-15T00:33:45;5.10;99.90
19365;DHT22;9818;48.382;10.850;2022-11-15T00:36:14;5.10;99.90
19365;DHT22;9818;48.382;10.850;2022-11-15T00:38:50;5.10;99.90
19365;DHT22;9818;48.382;10.850;2022-11-15T00:41:19;5.10;99.90
19365;DHT22;9818;48.382;10.850;2022-11-15T00:43:48;5.10;99.90
19365;DHT22;9818;48.382;10.850;2022-11-15T00:46:21;5.00;99.90
19365;DHT22;9818;48.382;10.850;2022-11-15T00:48:55;5.00;99.90
19365;DHT22;9818;48.382;10.850;2022-11-15T00:51:23;5.00;99.90
19365;DHT22;9818;48.382;10.850;2022-11-15T00:53:52;5.00;99.90
19365;DHT22;9818;48.382;10.850;2022-11-15T00:56:20;5.00;99.90
19365;DHT22;9818;48.382;10.850;2022-11-15T00:58:51;5.00;99.90
19365;DHT22;9818;48.382;10.850;2022-11-15T01:01:20;5.00;99.90
19365;DHT22;9818;48.382;10.850;2022-11-15T01:03:49;5.00;99.90
19365;DHT22;9818;48.382;10.850;2022-11-15T01:06:20;5.00;99.90
19365;DHT22;9818;48.382;10.850;2022-11-15T01:20:02;4.60;99.90
19365;DHT22;9818;48.382;10.850;2022-11-15T01:22:30;4.50;99.90
19365;DHT22;9818;48.382;10.850;2022-11-15T01:24:59;4.50;99.90
19365;DHT22;9818;48.382;10.850;2022-11-15T01:27:27;4.50;99.90
19365;DHT22;9818;48.382;10.850;2022-11-15T01:29:59;4.40;99.90
19365;DHT22;9818;48.382;10.850;2022-11-15T01:32:27;4.40;99.90
19365;DHT22;9818;48.382;10.850;2022-11-15T01:34:56;4.40;99.90
19365;DHT22;9818;48.382;10.850;2022-11-15T01:37:29;4.40;99.90
19365;DHT22;9818;48.382;10.850;2022-11-15T01:39:58;4.40;99.90
19365;DHT22;9818;48.382;10.850;2022-11-15T01:42:26;4.40;99.90
19365;DHT22;9818;48.382;10.850;2022-11-15T01:44:55;4.30;99.90
19365;DHT22;9818;48.382;10.850;2022-11-15T01:47:24;4.30;99.90
19365;DHT22;9818;48.382;10.850;2022-11-15T01:49:55;4.30;99.90
19365;DHT22;9818;48.382;10.850;2022-11-15T01:52:25;4.30;99.90
19365;DHT22;9818;48.382;10.850;2022-11-15T01:54:59;4.30;99.90
19365;DHT22;9818;48.382;10.850;2022-11-15T01:57:30;4.30;99.90
19365;DHT22;9818;48.382;10.850;2022-11-15T01:59:58;4.20;99.90
19365;DHT22;9818;48.382;10.850;2022-11-15T02:02:28;4.20;99.90
19365;DHT22;9818;48.382;10.850;2022-11-15T02:04:56;4.30;99.90
19365;DHT22;9818;48.382;10.850;2022-11-15T02:07:25;4.30;99.90
19365;DHT22;9818;48.382;10.850;2022-11-15T02:09:54;4.30;99.90
19365;DHT22;9818;48.382;10.850;2022-11-15T02:12:25;4.30;99.90
19365;DHT22;9818;48.382;10.850;2022-11-15T02:14:54;4.30;99.90
19365;DHT22;9818;48.382;10.850;2022-11-15T02:17:30;4.30;99.90
19365;DHT22;9818;48.382;10.850;2022-11-15T02:22:46;4.20;99.90
19365;DHT22;9818;48.382;10.850;2022-11-15T02:25:27;4.20;99.90
19365;DHT22;9818;48.382;10.850;2022-11-15T02:28:05;4.20;99.90
19365;DHT22;9818;48.382;10.850;2022-11-15T02:30:39;4.20;99.90
19365;DHT22;9818;48.382;10.850;2022-11-15T02:33:12;4.20;99.90
19365;DHT22;9818;48.382;10.850;2022-11-15T02:35:43;4.20;99.90
19365;DHT22;9818;48.382;10.850;2022-11-15T02:38:15;4.20;99.90
19365;DHT22;9818;48.382;10.850;2022-11-15T02:40:46;4.20;99.90
19365;DHT22;9818;48.382;10.850;2022-11-15T02:43:18;4.30;99.90
19365;DHT22;9818;48.382;10.850;2022-11-15T02:46:06;4.20;99.90
19365;DHT22;9818;48.382;10.850;2022-11-15T02:48:37;4.20;99.90
19365;DHT22;9818;48.382;10.850;2022-11-15T02:51:05;4.20;99.90
19365;DHT22;9818;48.382;10.850;2022-11-15T02:53:34;4.10;99.90
19365;DHT22;9818;48.382;10.850;2022-11-15T02:56:03;4.10;99.90
19365;DHT22;9818;48.382;10.850;2022-11-15T02:58:39;4.10;99.90
19365;DHT22;9818;48.382;10.850;2022-11-15T03:01:16;4.10;99.90
19365;DHT22;9818;48.382;10.850;2022-11-15T03:03:53;4.10;99.90
19365;DHT22;9818;48.382;10.850;2022-11-15T03:06:27;4.10;99.90
19365;DHT22;9818;48.382;10.850;2022-11-15T03:09:02;4.00;99.90
19365;DHT22;9818;48.382;10.850;2022-11-15T03:11:32;3.90;99.90
19365;DHT22;9818;48.382;10.850;2022-11-15T03:14:06;3.90;99.90
19365;DHT22;9818;48.382;10.850;2022-11-15T03:16:40;3.90;99.90
19365;DHT22;9818;48.382;10.850;2022-11-15T03:19:12;3.90;99.90
19365;DHT22;9818;48.382;10.850;2022-11-15T03:21:41;3.90;99.90
19365;DHT22;9818;48.382;10.850;2022-11-15T03:24:10;3.80;99.90
19365;DHT22;9818;48.382;10.850;2022-11-15T03:26:39;3.80;99.90
19365;DHT22;9818;48.382;10.850;2022-11-15T03:29:09;3.80;99.90
19365;DHT22;9818;48.382;10.850;2022-11-15T03:31:44;3.70;99.90
19365;DHT22;9818;48.382;10.850;2022-11-15T03:34:19;3.70;99.90
19365;DHT22;9818;48.382;10.850;2022-11-15T03:36:48;3.70;99.90
19365;DHT22;9818;48.382;10.850;2022-11-15T03:39:17;3.60;99.90
19365;DHT22;9818;48.382;10.850;2022-11-15T03:41:47;3.60;99.90
19365;DHT22;9818;48.382;10.850;2022-11-15T03:44:17;3.60;99.90
19365;DHT22;9818;48.382;10.850;2022-11-15T03:46:52;3.60;99.90
19365;DHT22;9818;48.382;10.850;2022-11-15T03:49:24;3.60;99.90
19365;DHT22;9818;48.382;10.850;2022-11-15T03:51:55;3.60;99.90
19365;DHT22;9818;48.382;10.850;2022-11-15T03:54:24;3.60;99.90
19365;DHT22;9818;48.382;10.850;2022-11-15T03:56:53;3.50;99.90
19365;DHT22;9818;48.382;10.850;2022-11-15T03:59:21;3.50;99.90
19365;DHT22;9818;48.382;10.850;2022-11-15T04:01:52;3.60;99.90
19365;DHT22;9818;48.382;10.850;2022-11-15T04:04:20;3.50;99.90
19365;DHT22;9818;48.382;10.850;2022-11-15T04:06:49;3.50;99.90
19365;DHT22;9818;48.382;10.850;2022-11-15T04:09:18;3.50;99.90
19365;DHT22;9818;48.382;10.850;2022-11-15T04:11:46;3.50;99.90
19365;DHT22;9818;48.382;10.850;2022-11-15T04:14:14;3.50;99.90
19365;DHT22;9818;48.382;10.850;2022-11-15T04:16:43;3.40;99.90
19365;DHT22;9818;48.382;10.850;2022-11-15T04:19:14;3.40;99.90
19365;DHT22;9818;48.382;10.850;2022-11-15T04:21:55;3.40;99.90
19365;DHT22;9818;48.382;10.850;2022-11-15T04:24:36;3.40;99.90
19365;DHT22;9818;48.382;10.850;2022-11-15T04:27:04;3.40;99.90
19365;DHT22;9818;48.382;10.850;2022-11-15T04:29:32;3.40;99.90
19365;DHT22;9818;48.382;10.850;2022-11-15T04:32:04;3.30;99.90
19365;DHT22;9818;48.382;10.850;2022-11-15T04:34:36;3.30;99.90
19365;DHT22;9818;48.382;10.850;2022-11-15T04:37:04;3.30;99.90
19365;DHT22;9818;48.382;10.850;2022-11-15T04:39:42;3.30;99.90
19365;DHT22;9818;48.382;10.850;2022-11-15T04:42:11;3.30;99.90
19365;DHT22;9818;48.382;10.850;2022-11-15T04:44:39;3.30;99.90
19365;DHT22;9818;48.382;10.850;2022-11-15T04:47:08;3.30;99.90
19365;DHT22;9818;48.382;10.850;2022-11-15T04:49:39;3.30;99.90
19365;DHT22;9818;48.382;10.850;2022-11-15T04:52:09;3.20;99.90
19365;DHT22;9818;48.382;10.850;2022-11-15T04:54:37;3.20;99.90
19365;DHT22;9818;48.382;10.850;2022-11-15T04:57:07;3.20;99.90
19365;DHT22;9818;48.382;10.850;2022-11-15T04:59:35;3.20;99.90
19365;DHT22;9818;48.382;10.850;2022-11-15T05:02:04;3.20;99.90
19365;DHT22;9818;48.382;10.850;2022-11-15T05:04:32;3.20;99.90
19365;DHT22;9818;48.382;10.850;2022-11-15T05:07:01;3.20;99.90
19365;DHT22;9818;48.382;10.850;2022-11-15T05:09:29;3.20;99.90
19365;DHT22;9818;48.382;10.850;2022-11-15T05:11:57;3.10;99.90
19365;DHT22;9818;48.382;10.850;2022-11-15T05:14:26;3.10;99.90
19365;DHT22;9818;48.382;10.850;2022-11-15T05:16:54;3.10;99.90
19365;DHT22;9818;48.382;10.850;2022-11-15T05:19:23;3.00;99.90
19365;DHT22;9818;48.382;10.850;2022-11-15T05:21:52;3.00;99.90
19365;DHT22;9818;48.382;10.850;2022-11-15T05:24:23;3.00;99.90
19365;DHT22;9818;48.382;10.850;2022-11-15T05:26:51;3.00;99.90
19365;DHT22;9818;48.382;10.850;2022-11-15T05:29:20;3.00;99.90
19365;DHT22;9818;48.382;10.850;2022-11-15T05:31:48;3.00;99.90
19365;DHT22;9818;48.382;10.850;2022-11-15T05:34:17;3.00;99.90
19365;DHT22;9818;48.382;10.850;2022-11-15T05:36:48;2.90;99.90
19365;DHT22;9818;48.382;10.850;2022-11-15T05:39:16;3.00;99.90
19365;DHT22;9818;48.382;10.850;2022-11-15T05:41:49;3.00;99.90
19365;DHT22;9818;48.382;10.850;2022-11-15T05:44:19;3.00;99.90
19365;DHT22;9818;48.382;10.850;2022-11-15T05:46:49;3.00;99.90
19365;DHT22;9818;48.382;10.850;2022-11-15T05:49:19;2.90;99.90
19365;DHT22;9818;48.382;10.850;2022-11-15T05:51:49;2.90;99.90
19365;DHT22;9818;48.382;10.850;2022-11-15T05:54:18;2.80;99.90
19365;DHT22;9818;48.382;10.850;2022-11-15T05:56:50;2.80;99.90
19365;DHT22;9818;48.382;10.850;2022-11-15T05:59:21;2.90;99.90
19365;DHT22;9818;48.382;10.850;2022-11-15T06:01:49;2.80;99.90
19365;DHT22;9818;48.382;10.850;2022-11-15T06:04:18;2.80;99.90
19365;DHT22;9818;48.382;10.850;2022-11-15T06:06:46;2.70;99.90
19365;DHT22;9818;48.382;10.850;2022-11-15T06:09:14;2.70;99.90
19365;DHT22;9818;48.382;10.850;2022-11-15T06:11:43;2.70;99.90
19365;DHT22;9818;48.382;10.850;2022-11-15T06:14:14;2.80;99.90
19365;DHT22;9818;48.382;10.850;2022-11-15T06:16:43;2.70;99.90
19365;DHT22;9818;48.382;10.850;2022-11-15T06:19:11;2.70;99.90
19365;DHT22;9818;48.382;10.850;2022-11-15T06:21:40;2.70;99.90
19365;DHT22;9818;48.382;10.850;2022-11-15T06:24:08;2.70;99.90
19365;DHT22;9818;48.382;10.850;2022-11-15T06:26:36;2.80;99.90
19365;DHT22;9818;48.382;10.850;2022-11-15T06:29:05;2.80;99.90
19365;DHT22;9818;48.382;10.850;2022-11-15T06:31:36;2.80;99.90
19365;DHT22;9818;48.382;10.850;2022-11-15T06:34:04;2.90;99.90
19365;DHT22;9818;48.382;10.850;2022-11-15T06:36:33;2.90;99.90
19365;DHT22;9818;48.382;10.850;2022-11-15T06:39:02;3.00;99.90
19365;DHT22;9818;48.382;10.850;2022-11-15T06:41:33;3.00;99.90
19365;DHT22;9818;48.382;10.850;2022-11-15T06:44:01;3.00;99.90
19365;DHT22;9818;48.382;10.850;2022-11-15T06:46:30;3.10;99.90
19365;DHT22;9818;48.382;10.850;2022-11-15T06:49:01;3.20;99.90
19365;DHT22;9818;48.382;10.850;2022-11-15T06:51:29;3.30;99.90
19365;DHT22;9818;48.382;10.850;2022-11-15T06:53:57;3.30;99.90
19365;DHT22;9818;48.382;10.850;2022-11-15T06:56:26;3.50;99.90
19365;DHT22;9818;48.382;10.850;2022-11-15T06:58:55;3.80;99.90
19365;DHT22;9818;48.382;10.850;2022-11-15T07:01:23;5.00;99.90
19365;DHT22;9818;48.382;10.850;2022-11-15T07:03:51;6.30;99.90
19365;DHT22;9818;48.382;10.850;2022-11-15T07:06:23;7.30;99.90
19365;DHT22;9818;48.382;10.850;2022-11-15T07:08:51;8.20;99.90
19365;DHT22;9818;48.382;10.850;2022-11-15T07:11:19;8.40;99.90
19365;DHT22;9818;48.382;10.850;2022-11-15T07:13:48;8.80;99.90
19365;DHT22;9818;48.382;10.850;2022-11-15T07:16:16;9.70;99.90
19365;DHT22;9818;48.382;10.850;2022-11-15T07:18:45;10.00;99.90
19365;DHT22;9818;48.382;10.850;2022-11-15T07:21:13;9.90;99.90
19365;DHT22;9818;48.382;10.850;2022-11-15T07:23:44;10.50;99.90
19365;DHT22;9818;48.382;10.850;2022-11-15T07:26:12;11.20;99.90
19365;DHT22;9818;48.382;10.850;2022-11-15T07:28:41;12.30;99.90
19365;DHT22;9818;48.382;10.850;2022-11-15T07:31:09;13.10;99.90
19365;DHT22;9818;48.382;10.850;2022-11-15T07:33:38;13.30;99.90
19365;DHT22;9818;48.382;10.850;2022-11-15T07:36:08;13.70;99.90
19365;DHT22;9818;48.382;10.850;2022-11-15T07:38:36;13.50;99.90
19365;DHT22;9818;48.382;10.850;2022-11-15T07:41:08;13.70;99.90
19365;DHT22;9818;48.382;10.850;2022-11-15T07:43:36;13.90;99.90
19365;DHT22;9818;48.382;10.850;2022-11-15T07:46:07;12.60;99.90
19365;DHT22;9818;48.382;10.850;2022-11-15T07:48:36;13.10;99.90
19365;DHT22;9818;48.382;10.850;2022-11-15T07:51:05;14.00;99.90
19365;DHT22;9818;48.382;10.850;2022-11-15T07:53:34;14.80;99.90
19365;DHT22;9818;48.382;10.850;2022-11-15T07:56:08;15.00;99.90
19365;DHT22;9818;48.382;10.850;2022-11-15T07:58:37;16.40;99.90
19365;DHT22;9818;48.382;10.850;2022-11-15T08:01:07;17.10;99.90
19365;DHT22;9818;48.382;10.850;2022-11-15T08:03:37;14.60;99.90
19365;DHT22;9818;48.382;10.850;2022-11-15T08:06:05;16.00;99.90
19365;DHT22;9818;48.382;10.850;2022-11-15T08:08:34;16.30;99.90
19365;DHT22;9818;48.382;10.850;2022-11-15T08:11:03;15.90;99.90
19365;DHT22;9818;48.382;10.850;2022-11-15T08:13:34;16.10;99.90
19365;DHT22;9818;48.382;10.850;2022-11-15T08:16:04;16.60;99.90
19365;DHT22;9818;48.382;10.850;2022-11-15T08:18:34;17.10;99.90
19365;DHT22;9818;48.382;10.850;2022-11-15T08:21:03;17.10;99.90
19365;DHT22;9818;48.382;10.850;2022-11-15T08:23:32;16.90;99.90
19365;DHT22;9818;48.382;10.850;2022-11-15T08:26:01;18.00;99.90
19365;DHT22;9818;48.382;10.850;2022-11-15T08:28:33;18.70;99.90
19365;DHT22;9818;48.382;10.850;2022-11-15T08:31:03;18.00;99.90
19365;DHT22;9818;48.382;10.850;2022-11-15T08:33:32;15.90;99.90
19365;DHT22;9818;48.382;10.850;2022-11-15T08:36:01;16.10;99.90
19365;DHT22;9818;48.382;10.850;2022-11-15T08:38:30;15.80;99.90
19365;DHT22;9818;48.382;10.850;2022-11-15T08:41:02;15.60;99.90
19365;DHT22;9818;48.382;10.850;2022-11-15T08:43:34;14.90;99.90
19365;DHT22;9818;48.382;10.850;2022-11-15T08:46:03;15.20;99.90
19365;DHT22;9818;48.382;10.850;2022-11-15T08:48:32;16.70;99.90
19365;DHT22;9818;48.382;10.850;2022-11-15T08:51:00;16.20;99.90
19365;DHT22;9818;48.382;10.850;2022-11-15T08:53:29;15.30;99.90
19365;DHT22;9818;48.382;10.850;2022-11-15T08:55:58;15.70;99.90
19365;DHT22;9818;48.382;10.850;2022-11-15T08:58:27;15.30;99.90
19365;DHT22;9818;48.382;10.850;2022-11-15T09:00:58;15.20;99.90
19365;DHT22;9818;48.382;10.850;2022-11-15T09:03:26;12.90;99.90
19365;DHT22;9818;48.382;10.850;2022-11-15T09:05:55;13.40;99.90
19365;DHT22;9818;48.382;10.850;2022-11-15T09:08:24;15.90;99.90
19365;DHT22;9818;48.382;10.850;2022-11-15T09:10:52;14.30;99.90
19365;DHT22;9818;48.382;10.850;2022-11-15T09:13:21;13.90;99.90
19365;DHT22;9818;48.382;10.850;2022-11-15T09:15:50;14.70;99.90
19365;DHT22;9818;48.382;10.850;2022-11-15T09:18:21;14.10;99.90
19365;DHT22;9818;48.382;10.850;2022-11-15T09:20:50;16.40;99.90
19365;DHT22;9818;48.382;10.850;2022-11-15T09:23:18;14.70;99.90
19365;DHT22;9818;48.382;10.850;2022-11-15T09:25:47;15.30;99.90
19365;DHT22;9818;48.382;10.850;2022-11-15T09:28:16;15.20;99.90
19365;DHT22;9818;48.382;10.850;2022-11-15T09:30:44;16.90;99.90
19365;DHT22;9818;48.382;10.850;2022-11-15T09:33:13;17.10;99.90
19365;DHT22;9818;48.382;10.850;2022-11-15T09:35:44;18.10;99.90
19365;DHT22;9818;48.382;10.850;2022-11-15T09:38:13;18.30;99.90
19365;DHT22;9818;48.382;10.850;2022-11-15T09:40:42;19.10;99.90
19365;DHT22;9818;48.382;10.850;2022-11-15T09:43:29;19.30;98.80
19365;DHT22;9818;48.382;10.850;2022-11-15T09:46:04;18.50;99.90
19365;DHT22;9818;48.382;10.850;2022-11-15T09:48:40;17.60;99.90
19365;DHT22;9818;48.382;10.850;2022-11-15T09:51:18;18.00;99.90
19365;DHT22;9818;48.382;10.850;2022-11-15T09:53:51;18.60;99.90
19365;DHT22;9818;48.382;10.850;2022-11-15T09:56:22;17.80;99.90
19365;DHT22;9818;48.382;10.850;2022-11-15T09:59:01;18.00;96.60
19365;DHT22;9818;48.382;10.850;2022-11-15T10:01:39;18.30;99.90
19365;DHT22;9818;48.382;10.850;2022-11-15T10:04:09;19.40;99.90
19365;DHT22;9818;48.382;10.850;2022-11-15T10:06:45;19.80;99.30
19365;DHT22;9818;48.382;10.850;2022-11-15T10:09:19;20.00;99.90
19365;DHT22;9818;48.382;10.850;2022-11-15T10:11:51;17.40;99.90
19365;DHT22;9818;48.382;10.850;2022-11-15T10:14:22;18.40;99.90
19365;DHT22;9818;48.382;10.850;2022-11-15T10:17:19;19.40;99.90
19365;DHT22;9818;48.382;10.850;2022-11-15T10:19:56;18.50;90.60
19365;DHT22;9818;48.382;10.850;2022-11-15T10:22:35;17.00;99.90
19365;DHT22;9818;48.382;10.850;2022-11-15T10:25:16;17.80;99.90
19365;DHT22;9818;48.382;10.850;2022-11-15T10:27:52;18.10;99.90
19365;DHT22;9818;48.382;10.850;2022-11-15T10:30:21;18.60;99.90
19365;DHT22;9818;48.382;10.850;2022-11-15T10:32:50;18.90;99.90
19365;DHT22;9818;48.382;10.850;2022-11-15T10:35:25;17.30;98.90
19365;DHT22;9818;48.382;10.850;2022-11-15T10:38:05;15.10;99.90
19365;DHT22;9818;48.382;10.850;2022-11-15T10:40:36;15.00;99.90
19365;DHT22;9818;48.382;10.850;2022-11-15T10:43:12;16.00;99.90
19365;DHT22;9818;48.382;10.850;2022-11-15T10:45:42;16.50;99.90
19365;DHT22;9818;48.382;10.850;2022-11-15T10:48:20;16.30;99.90
19365;DHT22;9818;48.382;10.850;2022-11-15T10:50:50;15.50;99.90
19365;DHT22;9818;48.382;10.850;2022-11-15T10:53:23;16.40;99.90
19365;DHT22;9818;48.382;10.850;2022-11-15T10:55:52;15.50;99.90
19365;DHT22;9818;48.382;10.850;2022-11-15T10:58:23;14.70;99.90
19365;DHT22;9818;48.382;10.850;2022-11-15T11:00:56;14.70;99.90
19365;DHT22;9818;48.382;10.850;2022-11-15T11:03:36;14.80;99.90
19365;DHT22;9818;48.382;10.850;2022-11-15T11:06:07;14.10;99.90
19365;DHT22;9818;48.382;10.850;2022-11-15T11:08:38;13.30;99.90
19365;DHT22;9818;48.382;10.850;2022-11-15T11:11:07;13.30;99.90
19365;DHT22;9818;48.382;10.850;2022-11-15T11:13:36;12.90;99.90
19365;DHT22;9818;48.382;10.850;2022-11-15T11:16:09;13.30;99.90
19365;DHT22;9818;48.382;10.850;2022-11-15T11:18:47;13.00;99.90
19365;DHT22;9818;48.382;10.850;2022-11-15T11:21:18;13.30;99.90
19365;DHT22;9818;48.382;10.850;2022-11-15T11:23:52;13.00;99.90
19365;DHT22;9818;48.382;10.850;2022-11-15T11:26:29;12.80;99.90
19365;DHT22;9818;48.382;10.850;2022-11-15T11:29:02;13.00;99.90
19365;DHT22;9818;48.382;10.850;2022-11-15T11:31:42;12.70;99.90
19365;DHT22;9818;48.382;10.850;2022-11-15T11:34:14;12.40;99.90
19365;DHT22;9818;48.382;10.850;2022-11-15T11:36:45;12.00;99.90
19365;DHT22;9818;48.382;10.850;2022-11-15T11:39:21;12.20;99.90
19365;DHT22;9818;48.382;10.850;2022-11-15T11:41:55;11.90;99.90
19365;DHT22;9818;48.382;10.850;2022-11-15T11:44:27;11.90;99.90
19365;DHT22;9818;48.382;10.850;2022-11-15T11:46:59;12.20;99.90
19365;DHT22;9818;48.382;10.850;2022-11-15T11:49:30;12.60;99.90
19365;DHT22;9818;48.382;10.850;2022-11-15T11:52:02;12.50;99.90
19365;DHT22;9818;48.382;10.850;2022-11-15T11:54:38;12.50;99.90
19365;DHT22;9818;48.382;10.850;2022-11-15T11:57:10;12.20;99.90
19365;DHT22;9818;48.382;10.850;2022-11-15T11:59:42;12.30;99.90
19365;DHT22;9818;48.382;10.850;2022-11-15T12:02:15;12.20;99.90
19365;DHT22;9818;48.382;10.850;2022-11-15T12:04:45;12.50;99.90
19365;DHT22;9818;48.382;10.850;2022-11-15T12:07:15;13.10;99.90
19365;DHT22;9818;48.382;10.850;2022-11-15T12:09:50;12.90;99.90
19365;DHT22;9818;48.382;10.850;2022-11-15T12:12:23;12.60;99.90
19365;DHT22;9818;48.382;10.850;2022-11-15T12:14:54;12.50;99.90
19365;DHT22;9818;48.382;10.850;2022-11-15T12:17:24;12.60;99.90
19365;DHT22;9818;48.382;10.850;2022-11-15T12:19:55;12.60;99.90
19365;DHT22;9818;48.382;10.850;2022-11-15T12:22:26;12.60;99.90
19365;DHT22;9818;48.382;10.850;2022-11-15T12:25:00;12.50;99.90
19365;DHT22;9818;48.382;10.850;2022-11-15T12:27:31;12.50;99.90
19365;DHT22;9818;48.382;10.850;2022-11-15T12:30:02;12.50;99.90
19365;DHT22;9818;48.382;10.850;2022-11-15T12:32:33;12.40;99.90
19365;DHT22;9818;48.382;10.850;2022-11-15T12:35:02;12.40;99.90
19365;DHT22;9818;48.382;10.850;2022-11-15T12:40:29;12.70;99.90
19365;DHT22;9818;48.382;10.850;2022-11-15T12:42:59;12.60;99.90
19365;DHT22;9818;48.382;10.850;2022-11-15T12:45:29;12.20;99.90
19365;DHT22;9818;48.382;10.850;2022-11-15T12:48:44;12.30;99.90
19365;DHT22;9818;48.382;10.850;2022-11-15T12:51:00;12.60;99.90
19365;DHT22;9818;48.382;10.850;2022-11-15T12:53:29;12.60;99.90
19365;DHT22;9818;48.382;10.850;2022-11-15T12:56:16;12.50;99.90
19365;DHT22;9818;48.382;10.850;2022-11-15T12:58:47;12.60;99.90
19365;DHT22;9818;48.382;10.850;2022-11-15T13:04:11;12.80;99.90
19365;DHT22;9818;48.382;10.850;2022-11-15T13:06:41;12.90;99.90
19365;DHT22;9818;48.382;10.850;2022-11-15T13:11:56;12.60;99.90
19365;DHT22;9818;48.382;10.850;2022-11-15T13:14:40;12.50;99.90
19365;DHT22;9818;48.382;10.850;2022-11-15T13:19:53;12.50;99.90
19365;DHT22;9818;48.382;10.850;2022-11-15T13:22:24;12.50;99.90
19365;DHT22;9818;48.382;10.850;2022-11-15T13:25:11;12.60;99.90
19365;DHT22;9818;48.382;10.850;2022-11-15T13:27:47;12.60;99.90
19365;DHT22;9818;48.382;10.850;2022-11-15T13:30:18;12.70;99.90
19365;DHT22;9818;48.382;10.850;2022-11-15T13:32:47;12.90;99.90
19365;DHT22;9818;48.382;10.850;2022-11-15T13:35:20;12.70;99.90
19365;DHT22;9818;48.382;10.850;2022-11-15T13:37:49;12.60;99.90
19365;DHT22;9818;48.382;10.850;2022-11-15T13:40:23;12.50;99.90
19365;DHT22;9818;48.382;10.850;2022-11-15T13:42:55;12.80;99.90
19365;DHT22;9818;48.382;10.850;2022-11-15T13:45:24;12.70;99.90
19365;DHT22;9818;48.382;10.850;2022-11-15T13:47:55;12.70;99.90
19365;DHT22;9818;48.382;10.850;2022-11-15T13:50:25;12.90;99.90
19365;DHT22;9818;48.382;10.850;2022-11-15T13:52:56;12.90;99.90
19365;DHT22;9818;48.382;10.850;2022-11-15T13:55:25;12.80;99.90
19365;DHT22;9818;48.382;10.850;2022-11-15T13:57:58;12.80;99.90
19365;DHT22;9818;48.382;10.850;2022-11-15T14:00:33;12.80;99.90
19365;DHT22;9818;48.382;10.850;2022-11-15T14:03:14;12.60;99.90
19365;DHT22;9818;48.382;10.850;2022-11-15T14:05:44;12.50;99.90
19365;DHT22;9818;48.382;10.850;2022-11-15T14:08:23;12.40;99.90
19365;DHT22;9818;48.382;10.850;2022-11-15T14:11:08;12.30;99.90
19365;DHT22;9818;48.382;10.850;2022-11-15T14:13:40;12.10;99.90
19365;DHT22;9818;48.382;10.850;2022-11-15T14:16:12;11.90;99.90
19365;DHT22;9818;48.382;10.850;2022-11-15T14:18:42;11.90;99.90
19365;DHT22;9818;48.382;10.850;2022-11-15T14:21:11;11.90;99.90
19365;DHT22;9818;48.382;10.850;2022-11-15T14:23:39;11.80;99.90
19365;DHT22;9818;48.382;10.850;2022-11-15T14:26:11;11.80;99.90
19365;DHT22;9818;48.382;10.850;2022-11-15T14:28:56;11.70;99.90
19365;DHT22;9818;48.382;10.850;2022-11-15T14:31:24;11.60;99.90
19365;DHT22;9818;48.382;10.850;2022-11-15T14:33:53;11.60;99.90
19365;DHT22;9818;48.382;10.850;2022-11-15T14:36:21;11.60;99.90
19365;DHT22;9818;48.382;10.850;2022-11-15T14:38:49;11.60;99.90
19365;DHT22;9818;48.382;10.850;2022-11-15T14:41:20;11.50;99.90
19365;DHT22;9818;48.382;10.850;2022-11-15T14:43:49;11.60;99.90
19365;DHT22;9818;48.382;10.850;2022-11-15T14:46:20;11.50;99.90
19365;DHT22;9818;48.382;10.850;2022-11-15T14:48:48;11.50;99.90
19365;DHT22;9818;48.382;10.850;2022-11-15T14:51:17;11.60;99.90
19365;DHT22;9818;48.382;10.850;2022-11-15T14:53:46;11.60;99.90
19365;DHT22;9818;48.382;10.850;2022-11-15T14:56:15;11.60;99.90
19365;DHT22;9818;48.382;10.850;2022-11-15T14:58:44;11.50;99.90
19365;DHT22;9818;48.382;10.850;2022-11-15T15:01:13;11.40;99.90
19365;DHT22;9818;48.382;10.850;2022-11-15T15:03:44;11.40;99.90
19365;DHT22;9818;48.382;10.850;2022-11-15T15:06:13;11.40;99.90
19365;DHT22;9818;48.382;10.850;2022-11-15T15:08:41;11.30;99.90
19365;DHT22;9818;48.382;10.850;2022-11-15T15:11:10;11.30;99.90
19365;DHT22;9818;48.382;10.850;2022-11-15T15:13:39;11.20;99.90
19365;DHT22;9818;48.382;10.850;2022-11-15T15:16:08;11.20;99.90
19365;DHT22;9818;48.382;10.850;2022-11-15T15:18:37;11.20;99.90
19365;DHT22;9818;48.382;10.850;2022-11-15T15:21:16;11.10;99.90
19365;DHT22;9818;48.382;10.850;2022-11-15T15:23:45;11.10;99.90
19365;DHT22;9818;48.382;10.850;2022-11-15T15:26:14;10.90;99.90
19365;DHT22;9818;48.382;10.850;2022-11-15T15:28:43;10.90;99.90
19365;DHT22;9818;48.382;10.850;2022-11-15T15:31:11;10.80;99.90
19365;DHT22;9818;48.382;10.850;2022-11-15T15:33:39;10.80;99.90
19365;DHT22;9818;48.382;10.850;2022-11-15T15:36:09;10.80;99.90
19365;DHT22;9818;48.382;10.850;2022-11-15T15:38:41;10.70;99.90
19365;DHT22;9818;48.382;10.850;2022-11-15T15:41:10;10.70;99.90
19365;DHT22;9818;48.382;10.850;2022-11-15T15:43:38;10.70;99.90
19365;DHT22;9818;48.382;10.850;2022-11-15T15:46:07;10.60;99.90
19365;DHT22;9818;48.382;10.850;2022-11-15T15:48:36;10.60;99.90
19365;DHT22;9818;48.382;10.850;2022-11-15T15:51:05;10.60;99.90
19365;DHT22;9818;48.382;10.850;2022-11-15T15:53:33;10.60;99.90
19365;DHT22;9818;48.382;10.850;2022-11-15T15:56:05;10.60;99.90
19365;DHT22;9818;48.382;10.850;2022-11-15T15:58:34;10.60;99.90
19365;DHT22;9818;48.382;10.850;2022-11-15T16:01:05;10.50;99.90
19365;DHT22;9818;48.382;10.850;2022-11-15T16:03:33;10.50;99.90
19365;DHT22;9818;48.382;10.850;2022-11-15T16:06:22;10.50;99.90
19365;DHT22;9818;48.382;10.850;2022-11-15T16:08:53;10.50;99.90
19365;DHT22;9818;48.382;10.850;2022-11-15T16:11:25;10.50;99.90
19365;DHT22;9818;48.382;10.850;2022-11-15T16:13:54;10.40;99.90
19365;DHT22;9818;48.382;10.850;2022-11-15T16:16:22;10.40;99.90
19365;DHT22;9818;48.382;10.850;2022-11-15T16:18:50;10.40;99.90
19365;DHT22;9818;48.382;10.850;2022-11-15T16:21:19;10.40;99.90
19365;DHT22;9818;48.382;10.850;2022-11-15T16:23:48;10.30;99.90
19365;DHT22;9818;48.382;10.850;2022-11-15T16:26:18;10.30;99.90